createdAt,value
2024-02-04T00:01:39.745Z,101474.94
2024-02-04T00:04:09.314Z,101472.66
2024-02-04T00:06:40.534Z,101478.44
2024-02-04T00:09:09.696Z,101463.31
2024-02-04T00:11:38.352Z,101473.06
2024-02-04T00:14:10.368Z,101470.56
2024-02-04T00:16:42.393Z,101469.91
2024-02-04T00:19:23.429Z,101463.03
2024-02-04T00:21:51.445Z,101463.38
2024-02-04T00:24:20.641Z,101453.84
2024-02-04T00:26:50.775Z,101453.22
2024-02-04T00:30:08.385Z,101460.44
2024-02-04T00:40:25.087Z,101446.41
2024-02-04T00:43:00.672Z,101434.84
2024-02-04T00:50:15.769Z,101440.16
2024-02-04T00:57:28.336Z,101434.84
2024-02-04T01:01:16.493Z,101441.94
2024-02-04T01:03:49.726Z,101438.53
2024-02-04T01:06:57.059Z,101441.25
2024-02-04T01:29:47.118Z,101444.25
2024-02-04T01:36:01.402Z,101448.78
2024-02-04T01:38:54.481Z,101457.38
2024-02-04T01:41:47.360Z,101452.06
2024-02-04T01:44:32.755Z,101460.03
2024-02-04T01:47:06.168Z,101466.00
2024-02-04T01:50:34.170Z,101463.38
2024-02-04T01:58:14.053Z,101467.25
2024-02-04T02:01:33.532Z,101468.19
2024-02-04T02:09:28.151Z,101473.91
2024-02-04T02:13:12.587Z,101458.22
2024-02-04T02:16:39.110Z,101447.81
2024-02-04T02:23:48.744Z,101449.38
2024-02-04T02:26:28.587Z,101448.56
2024-02-04T02:29:39.085Z,101442.53
2024-02-04T02:32:32.311Z,101435.59
2024-02-04T02:35:05.168Z,101436.81
2024-02-04T02:41:01.237Z,101433.47
2024-02-04T02:43:58.635Z,101422.03
2024-02-04T02:46:57.321Z,101426.53
2024-02-04T02:49:27.485Z,101418.75
2024-02-04T02:51:55.810Z,101422.44
2024-02-04T02:54:26.632Z,101416.34
2024-02-04T02:56:57.106Z,101410.97
2024-02-04T02:59:36.284Z,101399.66
2024-02-04T03:02:07.233Z,101407.69
2024-02-04T03:04:37.539Z,101414.88
2024-02-04T03:07:11.040Z,101401.69
2024-02-04T03:09:47.687Z,101400.09
2024-02-04T03:12:17.046Z,101394.94
2024-02-04T03:14:47.974Z,101387.06
2024-02-04T03:17:22.184Z,101396.81
2024-02-04T03:19:56.190Z,101398.59
2024-02-04T03:22:31.817Z,101395.88
2024-02-04T03:25:01.085Z,101401.09
2024-02-04T03:27:30.586Z,101393.22
2024-02-04T03:30:02.959Z,101394.09
2024-02-04T03:32:34.967Z,101401.25
2024-02-04T03:35:08.978Z,101403.81
2024-02-04T03:37:54.930Z,101392.38
2024-02-04T03:40:26.032Z,101378.28
2024-02-04T03:42:55.472Z,101378.31
2024-02-04T03:45:26.305Z,101374.03
2024-02-04T03:48:06.309Z,101383.69
2024-02-04T03:50:40.526Z,101385.53
2024-02-04T03:53:09.911Z,101379.25
2024-02-04T03:55:42.705Z,101376.66
2024-02-04T03:58:14.827Z,101376.59
2024-02-04T04:00:55.951Z,101368.81
2024-02-04T04:03:36.260Z,101375.94
2024-02-04T04:06:15.208Z,101376.75
2024-02-04T04:08:46.843Z,101372.16
2024-02-04T04:11:17.120Z,101382.91
2024-02-04T04:13:45.970Z,101381.09
2024-02-04T04:16:22.237Z,101385.41
2024-02-04T04:18:55.896Z,101386.22
2024-02-04T04:21:28.299Z,101382.72
2024-02-04T04:23:57.842Z,101382.66
2024-02-04T04:26:27.602Z,101382.56
2024-02-04T04:28:58.509Z,101387.00
2024-02-04T04:31:34.196Z,101390.44
2024-02-04T04:34:11.892Z,101386.00
2024-02-04T04:36:44.356Z,101374.50
2024-02-04T04:39:12.731Z,101388.59
2024-02-04T04:41:42.538Z,101374.34
2024-02-04T04:44:13.179Z,101376.84
2024-02-04T04:46:49.606Z,101378.56
2024-02-04T04:49:23.997Z,101375.84
2024-02-04T04:51:52.775Z,101377.63
2024-02-04T04:54:22.881Z,101380.22
2024-02-04T04:56:52.740Z,101376.56
2024-02-04T04:59:21.728Z,101388.94
2024-02-04T05:01:52.955Z,101392.50
2024-02-04T05:04:26.947Z,101387.75
2024-02-04T05:06:56.363Z,101385.03
2024-02-04T05:09:28.091Z,101369.94
2024-02-04T05:11:57.908Z,101375.91
2024-02-04T05:14:27.716Z,101373.09
2024-02-04T05:16:58.886Z,101372.31
2024-02-04T05:19:30.012Z,101379.19
2024-02-04T05:22:00.986Z,101370.16
2024-02-04T05:24:30.372Z,101360.56
2024-02-04T05:27:12.925Z,101375.53
2024-02-04T05:29:41.260Z,101381.56
2024-02-04T05:32:13.787Z,101372.75
2024-02-04T05:34:49.345Z,101374.41
2024-02-04T05:40:59.457Z,101374.03
2024-02-04T05:43:35.892Z,101369.03
2024-02-04T05:46:13.048Z,101374.25
2024-02-04T05:48:45.988Z,101384.16
2024-02-04T05:51:14.435Z,101374.53
2024-02-04T05:53:42.527Z,101373.41
2024-02-04T05:56:10.499Z,101389.44
2024-02-04T05:58:39.305Z,101381.34
2024-02-04T06:01:10.936Z,101374.34
2024-02-04T06:03:39.424Z,101376.13
2024-02-04T06:06:11.682Z,101375.34
2024-02-04T06:08:41.559Z,101372.69
2024-02-04T06:11:13.648Z,101370.91
2024-02-04T06:13:46.056Z,101369.03
2024-02-04T06:16:17.786Z,101363.75
2024-02-04T06:18:47.650Z,101371.69
2024-02-04T06:21:20.076Z,101375.25
2024-02-04T06:24:05.618Z,101376.06
2024-02-04T06:26:39.339Z,101371.47
2024-02-04T06:29:09.890Z,101365.22
2024-02-04T06:31:39.601Z,101366.94
2024-02-04T06:34:08.569Z,101375.72
2024-02-04T06:36:44.801Z,101358.03
2024-02-04T06:39:17.667Z,101356.16
2024-02-04T06:42:16.499Z,101359.66
2024-02-04T06:44:48.617Z,101362.38
2024-02-04T06:47:19.462Z,101347.13
2024-02-04T06:50:07.217Z,101341.66
2024-02-04T06:52:43.048Z,101349.00
2024-02-04T06:55:48.329Z,101353.19
2024-02-04T06:58:19.651Z,101347.91
2024-02-04T07:00:53.989Z,101348.72
2024-02-04T07:03:26.825Z,101345.31
2024-02-04T07:05:55.063Z,101345.19
2024-02-04T07:08:34.450Z,101339.75
2024-02-04T07:11:27.828Z,101341.41
2024-02-04T07:14:03.095Z,101348.25
2024-02-04T07:16:31.600Z,101349.19
2024-02-04T07:19:01.876Z,101353.47
2024-02-04T07:21:31.505Z,101353.44
2024-02-04T07:24:26.352Z,101357.81
2024-02-04T07:26:54.963Z,101353.28
2024-02-04T07:29:26.059Z,101356.78
2024-02-04T07:32:11.873Z,101364.59
2024-02-04T07:34:42.077Z,101367.03
2024-02-04T07:37:10.454Z,101368.69
2024-02-04T07:39:41.611Z,101366.75
2024-02-04T07:42:10.519Z,101369.31
2024-02-04T07:44:38.565Z,101369.88
2024-02-04T07:47:09.140Z,101365.53
2024-02-04T07:49:37.612Z,101365.44
2024-02-04T07:52:06.516Z,101371.69
2024-02-04T07:54:37.009Z,101377.84
2024-02-04T07:57:08.015Z,101373.69
2024-02-04T07:59:40.657Z,101366.47
2024-02-04T08:02:14.244Z,101352.09
2024-02-04T08:04:44.321Z,101356.78
2024-02-04T08:07:16.013Z,101344.50
2024-02-04T08:09:47.255Z,101350.59
2024-02-04T08:12:40.374Z,101358.84
2024-02-04T08:15:16.693Z,101367.66
2024-02-04T08:17:45.985Z,101349.03
2024-02-04T08:20:21.402Z,101349.03
2024-02-04T08:27:59.263Z,101350.06
2024-02-04T08:30:35.704Z,101341.19
2024-02-04T08:33:06.090Z,101349.88
2024-02-04T08:36:07.792Z,101347.41
2024-02-04T08:39:06.256Z,101347.56
2024-02-04T08:41:36.247Z,101352.47
2024-02-04T08:44:05.897Z,101354.75
2024-02-04T08:46:37.974Z,101358.34
2024-02-04T08:49:07.387Z,101352.97
2024-02-04T08:51:37.375Z,101356.00
2024-02-04T08:54:08.439Z,101350.56
2024-02-04T08:56:46.059Z,101345.94
2024-02-04T08:59:22.381Z,101336.94
2024-02-04T09:01:50.957Z,101355.63
2024-02-04T09:04:25.806Z,101346.06
2024-02-04T09:06:57.669Z,101347.78
2024-02-04T09:09:28.536Z,101345.16
2024-02-04T09:11:59.173Z,101335.22
2024-02-04T09:14:32.800Z,101345.03
2024-02-04T09:17:10.592Z,101357.72
2024-02-04T09:19:43.176Z,101346.03
2024-02-04T09:22:33.195Z,101327.13
2024-02-04T09:25:09.691Z,101343.50
2024-02-04T09:27:42.465Z,101342.13
2024-02-04T09:30:16.780Z,101334.84
2024-02-04T09:33:11.560Z,101337.81
2024-02-04T09:35:43.435Z,101338.31
2024-02-04T09:38:18.659Z,101349.44
2024-02-04T09:41:23.605Z,101329.00
2024-02-04T09:43:56.242Z,101342.91
2024-02-04T09:46:28.835Z,101334.31
2024-02-04T09:49:07.676Z,101323.13
2024-02-04T09:52:02.508Z,101322.03
2024-02-04T09:57:21.145Z,101323.34
2024-02-04T09:59:59.113Z,101324.66
2024-02-04T10:05:23.217Z,101332.19
2024-02-04T10:16:55.938Z,101340.88
2024-02-04T10:19:30.738Z,101329.31
2024-02-04T10:22:10.477Z,101336.63
2024-02-04T10:28:33.845Z,101334.16
2024-02-04T10:35:12.484Z,101339.47
2024-02-04T10:38:13.392Z,101327.34
2024-02-04T10:41:11.121Z,101313.53
2024-02-04T10:47:05.705Z,101309.88
2024-02-04T10:53:05.515Z,101300.31
2024-02-04T10:56:06.910Z,101312.50
2024-02-04T10:58:45.917Z,101303.50
2024-02-04T11:01:21.507Z,101304.91
2024-02-04T11:04:18.006Z,101301.97
2024-02-04T11:07:18.312Z,101307.09
2024-02-04T11:10:24.147Z,101281.50
2024-02-04T11:12:55.138Z,101275.00
2024-02-04T11:15:39.932Z,101271.81
2024-02-04T11:18:45.266Z,101275.25
2024-02-04T11:21:44.595Z,101265.97
2024-02-04T11:24:32.144Z,101266.63
2024-02-04T11:27:05.661Z,101261.66
2024-02-04T11:30:21.363Z,101256.25
2024-02-04T11:36:09.090Z,101266.25
2024-02-04T11:38:42.851Z,101275.25
2024-02-04T11:41:29.232Z,101261.38
2024-02-04T11:44:33.694Z,101267.78
2024-02-04T11:47:02.847Z,101278.38
2024-02-04T11:49:42.594Z,101278.22
2024-02-04T11:57:21.298Z,101259.41
2024-02-04T12:00:21.899Z,101260.34
2024-02-04T12:08:57.843Z,101229.38
2024-02-04T12:12:01.812Z,101248.09
2024-02-04T12:15:26.785Z,101239.88
2024-02-04T12:18:21.913Z,101241.00
2024-02-04T12:21:15.167Z,101239.00
2024-02-04T12:24:45.512Z,101227.50
2024-02-04T12:28:12.972Z,101219.44
2024-02-04T12:34:23.983Z,101226.63
2024-02-04T12:37:10.834Z,101230.78
2024-02-04T12:39:45.951Z,101239.34
2024-02-04T12:42:23.388Z,101209.34
2024-02-04T12:45:12.731Z,101211.31
2024-02-04T12:47:46.585Z,101202.47
2024-02-04T12:50:19.973Z,101209.03
2024-02-04T12:53:21.703Z,101219.97
2024-02-04T12:58:53.133Z,101202.25
2024-02-04T13:01:29.686Z,101207.22
2024-02-04T13:03:59.026Z,101196.41
2024-02-04T13:06:28.469Z,101212.44
2024-02-04T13:09:06.167Z,101210.13
2024-02-04T13:11:37.734Z,101190.56
2024-02-04T13:14:08.648Z,101193.84
2024-02-04T13:16:44.230Z,101201.53
2024-02-04T13:19:16.249Z,101194.53
2024-02-04T13:21:50.762Z,101189.34
2024-02-04T13:24:19.004Z,101193.09
2024-02-04T13:26:50.816Z,101195.03
2024-02-04T13:29:22.576Z,101199.75
2024-02-04T13:35:09.463Z,101185.41
2024-02-04T13:37:48.184Z,101189.09
2024-02-04T13:40:25.005Z,101180.03
2024-02-04T13:42:59.333Z,101173.41
2024-02-04T13:45:33.837Z,101185.22
2024-02-04T13:48:11.635Z,101183.97
2024-02-04T13:50:49.336Z,101183.22
2024-02-04T13:54:08.791Z,101188.19
2024-02-04T14:54:42.851Z,101196.69
2024-02-04T14:57:18.470Z,101188.09
2024-02-04T14:59:51.662Z,101183.03
2024-02-04T15:02:22.713Z,101182.28
2024-02-04T15:05:00.404Z,101176.34
2024-02-04T15:07:45.887Z,101195.03
2024-02-04T15:10:24.381Z,101191.88
2024-02-04T15:12:56.280Z,101186.22
2024-02-04T15:15:40.833Z,101195.06
2024-02-04T15:18:14.043Z,101197.13
2024-02-04T15:20:50.361Z,101214.94
2024-02-04T15:23:49.066Z,101202.75
2024-02-04T15:26:26.323Z,101199.09
2024-02-04T15:29:02.370Z,101200.19
2024-02-04T15:34:43.837Z,101193.00
2024-02-04T15:37:14.404Z,101190.50
2024-02-04T15:40:49.792Z,101190.50
2024-02-04T15:43:26.288Z,101197.38
2024-02-04T15:46:00.336Z,101196.88
2024-02-04T15:48:35.433Z,101183.81
2024-02-04T15:51:13.270Z,101173.19
2024-02-04T15:53:53.234Z,101166.09
2024-02-04T15:56:35.951Z,101158.81
2024-02-04T15:59:26.517Z,101160.53
2024-02-04T16:01:56.464Z,101152.63
2024-02-04T16:04:28.231Z,101157.25
2024-02-04T16:07:27.777Z,101160.19
2024-02-04T16:10:29.070Z,101157.69
2024-02-04T16:16:19.373Z,101164.44
2024-02-04T16:19:51.436Z,101174.25
2024-02-04T16:22:41.175Z,101185.69
2024-02-04T16:25:40.815Z,101183.81
2024-02-04T16:28:15.409Z,101192.56
2024-02-04T16:33:40.382Z,101191.63
2024-02-04T16:36:12.353Z,101183.66
2024-02-04T16:38:50.179Z,101177.56
2024-02-04T16:41:25.494Z,101182.09
2024-02-04T16:44:22.856Z,101184.03
2024-02-04T16:47:02.174Z,101186.69
2024-02-04T17:30:02.611Z,101166.00
2024-02-04T17:35:33.866Z,101170.59
2024-02-04T17:38:06.029Z,101168.75
2024-02-04T17:44:14.151Z,101174.91
2024-02-04T17:46:47.709Z,101172.25
2024-02-04T17:49:19.799Z,101167.72
2024-02-04T17:51:54.183Z,101166.78
2024-02-04T17:59:28.781Z,101150.06
2024-02-04T22:06:38.887Z,101142.00
2024-02-04T22:09:26.829Z,101134.78
2024-02-04T22:26:19.949Z,101115.41
2024-02-04T22:29:16.277Z,101123.47
2024-02-04T22:36:24.301Z,101120.13
2024-02-04T22:39:49.898Z,101104.47
2024-02-04T22:42:35.770Z,101113.19
2024-02-04T22:45:12.159Z,101109.81
2024-02-04T22:48:17.366Z,101117.66
2024-02-04T22:50:53.621Z,101109.78
2024-02-04T22:53:35.371Z,101109.81
2024-02-04T22:56:09.839Z,101130.19
2024-02-04T23:07:39.839Z,101118.81
2024-02-04T23:27:29.431Z,101123.16
2024-02-04T23:33:07.723Z,101111.91
2024-02-04T23:35:41.106Z,101118.53
2024-02-04T23:38:14.086Z,101112.78
2024-02-04T23:40:52.678Z,101124.38
2024-02-04T23:43:24.287Z,101119.16
2024-02-04T23:45:52.987Z,101114.72
2024-02-04T23:48:26.469Z,101116.59
2024-02-04T23:51:22.499Z,101113.34
2024-02-04T23:54:01.088Z,101118.09
2024-02-04T23:57:38.358Z,101119.41
